岡山グライダークラブ活動状況掲示板あなたは無料カウンター人目の訪問者です

岡山グライダークラブ
岡山市浦安南町639-1 岡南飛行場
 使用機:シャイベ式 SF25C型 ファルケ   JA2330
      ヴァレンティン式17E型 タイフーン  JA2342
 練習日:毎日曜日  クラブルーム:電話 086-265-1810
この掲示板は岡山グライダークラブの活動状況をお知らせする掲示板です。
!!!この掲示板は投稿規制をしています。!!!
クラブ関連各種情報は 岡山グライダークラブクラブルーム      を       .
  ブリーフイング情報は  岡山グライダークラブブリーフィングルーム  をご覧下さい。 .
※写真はクリックすると拡大して見ることが出来ます。
岡南飛行場へのアクセス等は 岡南飛行場管理事務所 をご覧ください。
クラブの ホームページ ができました。

 
01月26日
by OGC at 2020/1/26(日) 21:39:45 No.20200126213715  削除コメント
1024 x 768 x 67,604バイト
No.1

01月19日
本日の参加者
  会員      16名
  その他      0名


@本日の様子





METAR
RJBK 260000Z VRB02KT 30KM FEW025CU SCT100AC BKN130AC 06/04 Q1025 A3029
RJOB 260000Z 35005KT 310V030 9999 FEW020 SCT120 BKN140 06/02 Q1024
RJOT 260000Z VRB02KT 9999 FEW001 SCT080 BKN100 05/05 Q1025
RJOA 260000Z 03003KT 360V070 9999 BCFG FEW000 SCT120 BKN140 05/01 Q1024
TAF
RJOB 252306Z 2600/2706 04010KT 9999 FEW035
         TEMPO 2621/2700 4000 -RA BR
         TEMPO 2700/2706 07022G33KT 4000 RA BR FEW003 BKN008 BKN015
RJOT 252307Z 2600/2706 07010KT 9999 FEW030 SCT060
         TEMPO 2621/2706 08020G30KT 3000 RA BR FEW001 SCT005 BKN008
RJOA 252310Z 2600/2706 08007KT 9999 FEW030 SCT045
         BECMG 2618/2621 06018KT
         TEMPO 2621/2706 07020G30KT 3000 RA BR FEW001 SCT003 BKN008


本日は総会があり会計報告等を行いました。天候は風が弱く絶好の着陸練習日和で、ファルケはいつも通りTGL
を行い、タイフーンはNAV訓練に出ていました。

解散    17:40

1番機  11:55離陸 撤収機  17:05着陸 

SF25C JA2330 ファルケ     09Flt.2h50min  
17E   JA2342 タイフーン    03Flt.1h45min  
合計                    12Flt.4h35min

    << 戻る || ホームページ || 最新の掲示板へ